sensor_id;sensor_type;location;lat;lon;timestamp;temperature;humidity
25058;DHT22;13057;50.978;11.034;2022-09-21T00:00:00;8.80;99.90
25058;DHT22;13057;50.978;11.034;2022-09-21T00:02:27;8.80;99.90
25058;DHT22;13057;50.978;11.034;2022-09-21T00:04:53;8.70;99.90
25058;DHT22;13057;50.978;11.034;2022-09-21T00:07:19;8.70;99.90
25058;DHT22;13057;50.978;11.034;2022-09-21T00:09:45;8.70;99.90
25058;DHT22;13057;50.978;11.034;2022-09-21T00:12:11;8.70;99.90
25058;DHT22;13057;50.978;11.034;2022-09-21T00:14:37;8.70;99.90
25058;DHT22;13057;50.978;11.034;2022-09-21T00:17:04;8.60;99.90
25058;DHT22;13057;50.978;11.034;2022-09-21T00:19:29;8.60;99.90
25058;DHT22;13057;50.978;11.034;2022-09-21T00:21:55;8.60;99.90
25058;DHT22;13057;50.978;11.034;2022-09-21T00:24:21;8.60;99.90
25058;DHT22;13057;50.978;11.034;2022-09-21T00:26:48;8.60;99.90
25058;DHT22;13057;50.978;11.034;2022-09-21T00:29:13;8.50;99.90
25058;DHT22;13057;50.978;11.034;2022-09-21T00:31:39;8.50;99.90
25058;DHT22;13057;50.978;11.034;2022-09-21T00:34:05;8.50;99.90
25058;DHT22;13057;50.978;11.034;2022-09-21T00:36:32;8.50;99.90
25058;DHT22;13057;50.978;11.034;2022-09-21T00:39:00;8.50;99.90
25058;DHT22;13057;50.978;11.034;2022-09-21T00:41:28;8.50;99.90
25058;DHT22;13057;50.978;11.034;2022-09-21T00:44:19;8.50;99.90
25058;DHT22;13057;50.978;11.034;2022-09-21T00:46:49;8.50;99.90
25058;DHT22;13057;50.978;11.034;2022-09-21T00:49:16;8.40;99.90
25058;DHT22;13057;50.978;11.034;2022-09-21T00:51:45;8.50;99.90
25058;DHT22;13057;50.978;11.034;2022-09-21T00:54:13;8.40;99.90
25058;DHT22;13057;50.978;11.034;2022-09-21T00:56:42;8.40;99.90
25058;DHT22;13057;50.978;11.034;2022-09-21T00:59:09;8.40;99.90
25058;DHT22;13057;50.978;11.034;2022-09-21T01:01:35;8.40;99.90
25058;DHT22;13057;50.978;11.034;2022-09-21T01:04:03;8.40;99.90
25058;DHT22;13057;50.978;11.034;2022-09-21T01:06:31;8.40;99.90
25058;DHT22;13057;50.978;11.034;2022-09-21T01:08:59;8.30;99.90
25058;DHT22;13057;50.978;11.034;2022-09-21T01:11:39;8.30;99.90
25058;DHT22;13057;50.978;11.034;2022-09-21T01:14:29;8.30;99.90
25058;DHT22;13057;50.978;11.034;2022-09-21T01:17:06;8.30;99.90
25058;DHT22;13057;50.978;11.034;2022-09-21T01:19:51;8.30;99.90
25058;DHT22;13057;50.978;11.034;2022-09-21T01:22:45;8.20;99.90
25058;DHT22;13057;50.978;11.034;2022-09-21T01:25:32;8.20;99.90
25058;DHT22;13057;50.978;11.034;2022-09-21T01:28:15;8.20;99.90
25058;DHT22;13057;50.978;11.034;2022-09-21T01:30:48;8.20;99.90
25058;DHT22;13057;50.978;11.034;2022-09-21T01:33:32;8.20;99.90
25058;DHT22;13057;50.978;11.034;2022-09-21T01:36:05;8.20;99.90
25058;DHT22;13057;50.978;11.034;2022-09-21T01:38:39;8.10;99.90
25058;DHT22;13057;50.978;11.034;2022-09-21T01:41:09;8.10;99.90
25058;DHT22;13057;50.978;11.034;2022-09-21T01:43:40;8.00;99.90
25058;DHT22;13057;50.978;11.034;2022-09-21T01:46:11;8.00;99.90
25058;DHT22;13057;50.978;11.034;2022-09-21T01:48:43;8.00;99.90
25058;DHT22;13057;50.978;11.034;2022-09-21T01:51:15;8.00;99.90
25058;DHT22;13057;50.978;11.034;2022-09-21T01:53:53;7.90;99.90
25058;DHT22;13057;50.978;11.034;2022-09-21T01:56:24;7.90;99.90
25058;DHT22;13057;50.978;11.034;2022-09-21T01:59:11;8.00;99.90
25058;DHT22;13057;50.978;11.034;2022-09-21T02:01:45;8.00;99.90
25058;DHT22;13057;50.978;11.034;2022-09-21T02:04:13;8.00;99.90
25058;DHT22;13057;50.978;11.034;2022-09-21T02:06:41;8.00;99.90
25058;DHT22;13057;50.978;11.034;2022-09-21T02:09:09;8.00;99.90
25058;DHT22;13057;50.978;11.034;2022-09-21T02:11:36;7.90;99.90
25058;DHT22;13057;50.978;11.034;2022-09-21T02:14:13;7.90;99.90
25058;DHT22;13057;50.978;11.034;2022-09-21T02:16:57;7.90;99.90
25058;DHT22;13057;50.978;11.034;2022-09-21T02:19:36;7.90;99.90
25058;DHT22;13057;50.978;11.034;2022-09-21T02:22:14;7.90;99.90
25058;DHT22;13057;50.978;11.034;2022-09-21T02:24:46;7.90;99.90
25058;DHT22;13057;50.978;11.034;2022-09-21T02:27:37;7.90;99.90
25058;DHT22;13057;50.978;11.034;2022-09-21T02:30:12;7.90;99.90
25058;DHT22;13057;50.978;11.034;2022-09-21T02:33:03;7.80;99.90
25058;DHT22;13057;50.978;11.034;2022-09-21T02:35:41;7.80;99.90
25058;DHT22;13057;50.978;11.034;2022-09-21T02:38:19;7.80;99.90
25058;DHT22;13057;50.978;11.034;2022-09-21T02:40:51;7.80;99.90
25058;DHT22;13057;50.978;11.034;2022-09-21T02:43:25;7.80;99.90
25058;DHT22;13057;50.978;11.034;2022-09-21T02:45:56;7.80;99.90
25058;DHT22;13057;50.978;11.034;2022-09-21T02:48:29;7.70;99.90
25058;DHT22;13057;50.978;11.034;2022-09-21T02:50:58;7.70;99.90
25058;DHT22;13057;50.978;11.034;2022-09-21T02:53:32;7.60;99.90
25058;DHT22;13057;50.978;11.034;2022-09-21T02:56:03;7.60;99.90
25058;DHT22;13057;50.978;11.034;2022-09-21T02:58:35;7.60;99.90
25058;DHT22;13057;50.978;11.034;2022-09-21T03:01:04;7.60;99.90
25058;DHT22;13057;50.978;11.034;2022-09-21T03:03:34;7.60;99.90
25058;DHT22;13057;50.978;11.034;2022-09-21T03:06:00;7.60;99.90
25058;DHT22;13057;50.978;11.034;2022-09-21T03:08:26;7.60;99.90
25058;DHT22;13057;50.978;11.034;2022-09-21T03:10:53;7.60;99.90
25058;DHT22;13057;50.978;11.034;2022-09-21T03:13:19;7.60;99.90
25058;DHT22;13057;50.978;11.034;2022-09-21T03:15:45;7.60;99.90
25058;DHT22;13057;50.978;11.034;2022-09-21T03:18:12;7.60;99.90
25058;DHT22;13057;50.978;11.034;2022-09-21T03:20:41;7.50;99.90
25058;DHT22;13057;50.978;11.034;2022-09-21T03:23:11;7.50;99.90
25058;DHT22;13057;50.978;11.034;2022-09-21T03:25:36;7.40;99.90
25058;DHT22;13057;50.978;11.034;2022-09-21T03:28:03;7.40;99.90
25058;DHT22;13057;50.978;11.034;2022-09-21T03:30:29;7.40;99.90
25058;DHT22;13057;50.978;11.034;2022-09-21T03:32:56;7.40;99.90
25058;DHT22;13057;50.978;11.034;2022-09-21T03:35:23;7.40;99.90
25058;DHT22;13057;50.978;11.034;2022-09-21T03:37:51;7.40;99.90
25058;DHT22;13057;50.978;11.034;2022-09-21T03:40:18;7.40;99.90
25058;DHT22;13057;50.978;11.034;2022-09-21T03:42:44;7.40;99.90
25058;DHT22;13057;50.978;11.034;2022-09-21T03:45:10;7.40;99.90
25058;DHT22;13057;50.978;11.034;2022-09-21T03:47:37;7.30;99.90
25058;DHT22;13057;50.978;11.034;2022-09-21T03:50:05;7.30;99.90
25058;DHT22;13057;50.978;11.034;2022-09-21T03:52:31;7.30;99.90
25058;DHT22;13057;50.978;11.034;2022-09-21T03:55:03;7.30;99.90
25058;DHT22;13057;50.978;11.034;2022-09-21T03:57:31;7.20;99.90
25058;DHT22;13057;50.978;11.034;2022-09-21T03:59:59;7.20;99.90
25058;DHT22;13057;50.978;11.034;2022-09-21T04:02:27;7.20;99.90
25058;DHT22;13057;50.978;11.034;2022-09-21T04:04:52;7.20;99.90
25058;DHT22;13057;50.978;11.034;2022-09-21T04:07:18;7.20;99.90
25058;DHT22;13057;50.978;11.034;2022-09-21T04:09:44;7.20;99.90
25058;DHT22;13057;50.978;11.034;2022-09-21T04:12:10;7.20;99.90
25058;DHT22;13057;50.978;11.034;2022-09-21T04:14:36;7.20;99.90
25058;DHT22;13057;50.978;11.034;2022-09-21T04:17:02;7.20;99.90
25058;DHT22;13057;50.978;11.034;2022-09-21T04:19:28;7.10;99.90
25058;DHT22;13057;50.978;11.034;2022-09-21T04:21:53;7.20;99.90
25058;DHT22;13057;50.978;11.034;2022-09-21T04:24:21;7.20;99.90
25058;DHT22;13057;50.978;11.034;2022-09-21T04:26:47;7.20;99.90
25058;DHT22;13057;50.978;11.034;2022-09-21T04:29:14;7.20;99.90
25058;DHT22;13057;50.978;11.034;2022-09-21T04:31:41;7.10;99.90
25058;DHT22;13057;50.978;11.034;2022-09-21T04:34:08;7.10;99.90
25058;DHT22;13057;50.978;11.034;2022-09-21T04:36:36;7.20;99.90
25058;DHT22;13057;50.978;11.034;2022-09-21T04:39:03;7.20;99.90
25058;DHT22;13057;50.978;11.034;2022-09-21T04:41:32;7.20;99.90
25058;DHT22;13057;50.978;11.034;2022-09-21T04:43:58;7.20;99.90
25058;DHT22;13057;50.978;11.034;2022-09-21T04:46:24;7.20;99.90
25058;DHT22;13057;50.978;11.034;2022-09-21T04:48:50;7.20;99.90
25058;DHT22;13057;50.978;11.034;2022-09-21T04:51:16;7.20;99.90
25058;DHT22;13057;50.978;11.034;2022-09-21T04:53:42;7.20;99.90
25058;DHT22;13057;50.978;11.034;2022-09-21T04:56:11;7.20;99.90
25058;DHT22;13057;50.978;11.034;2022-09-21T04:58:38;7.20;99.90
25058;DHT22;13057;50.978;11.034;2022-09-21T05:01:04;7.20;99.90
25058;DHT22;13057;50.978;11.034;2022-09-21T05:03:31;7.20;99.90
25058;DHT22;13057;50.978;11.034;2022-09-21T05:05:57;7.20;99.90
25058;DHT22;13057;50.978;11.034;2022-09-21T05:08:25;7.30;99.90
25058;DHT22;13057;50.978;11.034;2022-09-21T05:11:04;7.30;99.90
25058;DHT22;13057;50.978;11.034;2022-09-21T05:13:30;7.30;99.90
25058;DHT22;13057;50.978;11.034;2022-09-21T05:15:56;7.30;99.90
25058;DHT22;13057;50.978;11.034;2022-09-21T05:18:22;7.30;99.90
25058;DHT22;13057;50.978;11.034;2022-09-21T05:20:55;7.30;99.90
25058;DHT22;13057;50.978;11.034;2022-09-21T05:23:22;7.40;99.90
25058;DHT22;13057;50.978;11.034;2022-09-21T05:25:48;7.30;99.90
25058;DHT22;13057;50.978;11.034;2022-09-21T05:28:15;7.30;99.90
25058;DHT22;13057;50.978;11.034;2022-09-21T05:30:42;7.20;99.90
25058;DHT22;13057;50.978;11.034;2022-09-21T05:33:12;7.20;99.90
25058;DHT22;13057;50.978;11.034;2022-09-21T05:35:56;7.20;99.90
25058;DHT22;13057;50.978;11.034;2022-09-21T05:38:23;7.20;99.90
25058;DHT22;13057;50.978;11.034;2022-09-21T05:40:49;7.30;99.90
25058;DHT22;13057;50.978;11.034;2022-09-21T05:43:16;7.30;99.90
25058;DHT22;13057;50.978;11.034;2022-09-21T05:45:45;7.30;99.90
25058;DHT22;13057;50.978;11.034;2022-09-21T05:48:18;7.30;99.90
25058;DHT22;13057;50.978;11.034;2022-09-21T05:50:55;7.30;99.90
25058;DHT22;13057;50.978;11.034;2022-09-21T05:53:37;7.30;99.90
25058;DHT22;13057;50.978;11.034;2022-09-21T05:56:17;7.30;99.90
25058;DHT22;13057;50.978;11.034;2022-09-21T05:58:54;7.30;99.90
25058;DHT22;13057;50.978;11.034;2022-09-21T06:01:56;7.30;99.90
25058;DHT22;13057;50.978;11.034;2022-09-21T06:04:17;7.30;99.90
25058;DHT22;13057;50.978;11.034;2022-09-21T06:06:43;7.30;99.90
25058;DHT22;13057;50.978;11.034;2022-09-21T06:09:08;7.30;99.90
25058;DHT22;13057;50.978;11.034;2022-09-21T06:11:35;7.40;99.90
25058;DHT22;13057;50.978;11.034;2022-09-21T06:14:01;7.40;99.90
25058;DHT22;13057;50.978;11.034;2022-09-21T06:16:36;7.40;99.90
25058;DHT22;13057;50.978;11.034;2022-09-21T06:19:02;7.40;99.90
25058;DHT22;13057;50.978;11.034;2022-09-21T06:21:28;7.40;99.90
25058;DHT22;13057;50.978;11.034;2022-09-21T06:23:54;7.50;99.90
25058;DHT22;13057;50.978;11.034;2022-09-21T06:26:19;7.50;99.90
25058;DHT22;13057;50.978;11.034;2022-09-21T06:28:45;7.50;99.90
25058;DHT22;13057;50.978;11.034;2022-09-21T06:31:11;7.60;99.90
25058;DHT22;13057;50.978;11.034;2022-09-21T06:33:37;7.60;99.90
25058;DHT22;13057;50.978;11.034;2022-09-21T06:36:03;7.70;99.90
25058;DHT22;13057;50.978;11.034;2022-09-21T06:38:29;7.70;99.90
25058;DHT22;13057;50.978;11.034;2022-09-21T06:40:59;7.80;99.90
25058;DHT22;13057;50.978;11.034;2022-09-21T06:43:25;7.80;99.90
25058;DHT22;13057;50.978;11.034;2022-09-21T06:45:56;7.90;99.90
25058;DHT22;13057;50.978;11.034;2022-09-21T06:48:22;8.00;99.90
25058;DHT22;13057;50.978;11.034;2022-09-21T06:50:49;8.10;99.90
25058;DHT22;13057;50.978;11.034;2022-09-21T06:53:15;8.10;99.90
25058;DHT22;13057;50.978;11.034;2022-09-21T06:55:41;8.20;99.90
25058;DHT22;13057;50.978;11.034;2022-09-21T06:58:07;8.20;99.90
25058;DHT22;13057;50.978;11.034;2022-09-21T07:00:32;8.20;99.90
25058;DHT22;13057;50.978;11.034;2022-09-21T07:02:58;8.30;99.90
25058;DHT22;13057;50.978;11.034;2022-09-21T07:05:24;8.30;99.90
25058;DHT22;13057;50.978;11.034;2022-09-21T07:07:56;8.40;99.90
25058;DHT22;13057;50.978;11.034;2022-09-21T07:10:22;8.50;99.90
25058;DHT22;13057;50.978;11.034;2022-09-21T07:12:48;8.60;99.90
25058;DHT22;13057;50.978;11.034;2022-09-21T07:15:16;8.70;99.90
25058;DHT22;13057;50.978;11.034;2022-09-21T07:17:44;8.80;99.90
25058;DHT22;13057;50.978;11.034;2022-09-21T07:20:09;8.90;99.90
25058;DHT22;13057;50.978;11.034;2022-09-21T07:22:36;9.00;99.90
25058;DHT22;13057;50.978;11.034;2022-09-21T07:25:04;9.00;99.90
25058;DHT22;13057;50.978;11.034;2022-09-21T07:27:31;9.00;99.90
25058;DHT22;13057;50.978;11.034;2022-09-21T07:29:58;9.10;99.90
25058;DHT22;13057;50.978;11.034;2022-09-21T07:32:24;9.10;99.90
25058;DHT22;13057;50.978;11.034;2022-09-21T07:34:51;9.20;99.90
25058;DHT22;13057;50.978;11.034;2022-09-21T07:37:22;9.30;99.90
25058;DHT22;13057;50.978;11.034;2022-09-21T07:39:49;9.30;99.90
25058;DHT22;13057;50.978;11.034;2022-09-21T07:42:16;9.30;99.90
25058;DHT22;13057;50.978;11.034;2022-09-21T07:44:43;9.40;99.90
25058;DHT22;13057;50.978;11.034;2022-09-21T07:47:09;9.50;99.90
25058;DHT22;13057;50.978;11.034;2022-09-21T07:49:38;9.50;99.90
25058;DHT22;13057;50.978;11.034;2022-09-21T07:52:04;9.60;99.90
25058;DHT22;13057;50.978;11.034;2022-09-21T07:54:30;9.60;99.90
25058;DHT22;13057;50.978;11.034;2022-09-21T07:56:58;9.70;99.90
25058;DHT22;13057;50.978;11.034;2022-09-21T07:59:36;9.80;99.90
25058;DHT22;13057;50.978;11.034;2022-09-21T08:02:01;9.80;99.90
25058;DHT22;13057;50.978;11.034;2022-09-21T08:04:28;9.90;99.90
25058;DHT22;13057;50.978;11.034;2022-09-21T08:06:55;10.00;99.90
25058;DHT22;13057;50.978;11.034;2022-09-21T08:09:21;10.10;99.90
25058;DHT22;13057;50.978;11.034;2022-09-21T08:11:48;10.10;99.90
25058;DHT22;13057;50.978;11.034;2022-09-21T08:14:17;10.20;99.90
25058;DHT22;13057;50.978;11.034;2022-09-21T08:16:46;10.30;99.90
25058;DHT22;13057;50.978;11.034;2022-09-21T08:19:14;10.40;99.90
25058;DHT22;13057;50.978;11.034;2022-09-21T08:21:41;10.40;99.90
25058;DHT22;13057;50.978;11.034;2022-09-21T08:24:09;10.50;99.90
25058;DHT22;13057;50.978;11.034;2022-09-21T08:26:35;10.60;99.90
25058;DHT22;13057;50.978;11.034;2022-09-21T08:29:01;10.60;99.90
25058;DHT22;13057;50.978;11.034;2022-09-21T08:31:28;10.70;99.90
25058;DHT22;13057;50.978;11.034;2022-09-21T08:33:55;10.80;99.90
25058;DHT22;13057;50.978;11.034;2022-09-21T08:36:22;10.90;99.90
25058;DHT22;13057;50.978;11.034;2022-09-21T08:38:50;11.00;99.90
25058;DHT22;13057;50.978;11.034;2022-09-21T08:41:57;11.00;99.90
25058;DHT22;13057;50.978;11.034;2022-09-21T08:44:28;11.10;99.90
25058;DHT22;13057;50.978;11.034;2022-09-21T08:47:05;11.20;99.90
25058;DHT22;13057;50.978;11.034;2022-09-21T08:49:35;11.30;99.90
25058;DHT22;13057;50.978;11.034;2022-09-21T08:52:06;11.30;99.90
25058;DHT22;13057;50.978;11.034;2022-09-21T08:54:41;11.30;99.90
25058;DHT22;13057;50.978;11.034;2022-09-21T08:57:12;11.50;99.90
25058;DHT22;13057;50.978;11.034;2022-09-21T08:59:43;11.60;99.90
25058;DHT22;13057;50.978;11.034;2022-09-21T09:02:37;11.70;99.90
25058;DHT22;13057;50.978;11.034;2022-09-21T09:05:36;11.80;99.90
25058;DHT22;13057;50.978;11.034;2022-09-21T09:08:30;11.80;99.90
25058;DHT22;13057;50.978;11.034;2022-09-21T09:11:20;12.00;99.90
25058;DHT22;13057;50.978;11.034;2022-09-21T09:17:08;12.50;99.90
25058;DHT22;13057;50.978;11.034;2022-09-21T09:19:50;12.80;99.90
25058;DHT22;13057;50.978;11.034;2022-09-21T09:22:26;12.90;99.90
25058;DHT22;13057;50.978;11.034;2022-09-21T09:25:01;13.00;99.90
25058;DHT22;13057;50.978;11.034;2022-09-21T09:27:35;13.20;99.90
25058;DHT22;13057;50.978;11.034;2022-09-21T09:30:19;13.40;99.90
25058;DHT22;13057;50.978;11.034;2022-09-21T09:33:14;13.50;99.90
25058;DHT22;13057;50.978;11.034;2022-09-21T09:35:51;13.60;99.90
25058;DHT22;13057;50.978;11.034;2022-09-21T09:38:40;13.80;99.90
25058;DHT22;13057;50.978;11.034;2022-09-21T09:41:28;14.00;99.90
25058;DHT22;13057;50.978;11.034;2022-09-21T09:44:23;14.10;99.90
25058;DHT22;13057;50.978;11.034;2022-09-21T09:50:07;14.20;99.80
25058;DHT22;13057;50.978;11.034;2022-09-21T09:52:34;14.20;99.80
25058;DHT22;13057;50.978;11.034;2022-09-21T09:55:10;14.40;99.80
25058;DHT22;13057;50.978;11.034;2022-09-21T09:57:40;14.50;99.20
25058;DHT22;13057;50.978;11.034;2022-09-21T10:00:07;14.60;98.00
25058;DHT22;13057;50.978;11.034;2022-09-21T10:02:47;14.60;97.60
25058;DHT22;13057;50.978;11.034;2022-09-21T10:05:34;14.70;97.20
25058;DHT22;13057;50.978;11.034;2022-09-21T10:08:03;14.80;97.20
25058;DHT22;13057;50.978;11.034;2022-09-21T10:10:32;15.00;97.90
25058;DHT22;13057;50.978;11.034;2022-09-21T10:13:10;15.20;97.90
25058;DHT22;13057;50.978;11.034;2022-09-21T10:15:44;15.30;97.40
25058;DHT22;13057;50.978;11.034;2022-09-21T10:18:22;15.40;96.20
25058;DHT22;13057;50.978;11.034;2022-09-21T10:20:58;15.50;95.90
25058;DHT22;13057;50.978;11.034;2022-09-21T10:23:30;15.60;96.20
25058;DHT22;13057;50.978;11.034;2022-09-21T10:26:06;15.60;94.60
25058;DHT22;13057;50.978;11.034;2022-09-21T10:28:36;15.60;94.80
25058;DHT22;13057;50.978;11.034;2022-09-21T10:31:16;15.50;94.40
25058;DHT22;13057;50.978;11.034;2022-09-21T10:33:47;15.50;94.10
25058;DHT22;13057;50.978;11.034;2022-09-21T10:36:34;15.50;94.50
25058;DHT22;13057;50.978;11.034;2022-09-21T10:39:18;15.60;93.90
25058;DHT22;13057;50.978;11.034;2022-09-21T10:41:48;15.60;93.70
25058;DHT22;13057;50.978;11.034;2022-09-21T10:44:17;15.50;94.30
25058;DHT22;13057;50.978;11.034;2022-09-21T10:46:48;15.50;94.00
25058;DHT22;13057;50.978;11.034;2022-09-21T10:49:22;15.50;94.20
25058;DHT22;13057;50.978;11.034;2022-09-21T10:51:50;15.50;94.30
25058;DHT22;13057;50.978;11.034;2022-09-21T10:54:21;15.50;95.00
25058;DHT22;13057;50.978;11.034;2022-09-21T10:56:51;15.60;95.20
25058;DHT22;13057;50.978;11.034;2022-09-21T10:59:34;15.70;94.40
25058;DHT22;13057;50.978;11.034;2022-09-21T11:02:21;15.80;94.30
25058;DHT22;13057;50.978;11.034;2022-09-21T11:04:51;15.70;93.70
25058;DHT22;13057;50.978;11.034;2022-09-21T11:07:31;15.70;92.70
25058;DHT22;13057;50.978;11.034;2022-09-21T11:12:57;15.70;90.50
25058;DHT22;13057;50.978;11.034;2022-09-21T11:15:48;15.60;91.00
25058;DHT22;13057;50.978;11.034;2022-09-21T11:18:33;15.60;90.60
25058;DHT22;13057;50.978;11.034;2022-09-21T11:21:14;15.50;88.90
25058;DHT22;13057;50.978;11.034;2022-09-21T11:26:44;15.50;89.50
25058;DHT22;13057;50.978;11.034;2022-09-21T11:29:22;15.60;91.90
25058;DHT22;13057;50.978;11.034;2022-09-21T11:32:05;15.70;92.60
25058;DHT22;13057;50.978;11.034;2022-09-21T11:34:51;15.70;91.60
25058;DHT22;13057;50.978;11.034;2022-09-21T11:43:45;15.80;90.80
25058;DHT22;13057;50.978;11.034;2022-09-21T11:52:09;16.00;90.10
25058;DHT22;13057;50.978;11.034;2022-09-21T11:54:53;16.10;89.80
25058;DHT22;13057;50.978;11.034;2022-09-21T11:57:30;16.10;90.10
25058;DHT22;13057;50.978;11.034;2022-09-21T12:00:09;16.10;91.00
25058;DHT22;13057;50.978;11.034;2022-09-21T12:03:09;16.20;91.10
25058;DHT22;13057;50.978;11.034;2022-09-21T12:06:02;16.20;90.80
25058;DHT22;13057;50.978;11.034;2022-09-21T12:11:28;16.10;91.40
25058;DHT22;13057;50.978;11.034;2022-09-21T12:14:13;16.10;91.20
25058;DHT22;13057;50.978;11.034;2022-09-21T12:16:51;16.10;90.40
25058;DHT22;13057;50.978;11.034;2022-09-21T12:19:24;16.00;90.60
25058;DHT22;13057;50.978;11.034;2022-09-21T12:22:01;15.80;90.90
25058;DHT22;13057;50.978;11.034;2022-09-21T12:24:33;15.70;91.30
25058;DHT22;13057;50.978;11.034;2022-09-21T12:27:07;15.60;91.40
25058;DHT22;13057;50.978;11.034;2022-09-21T12:29:39;15.60;91.30
25058;DHT22;13057;50.978;11.034;2022-09-21T12:32:20;15.60;91.20
25058;DHT22;13057;50.978;11.034;2022-09-21T12:34:55;15.60;91.00
25058;DHT22;13057;50.978;11.034;2022-09-21T12:37:28;15.60;90.20
25058;DHT22;13057;50.978;11.034;2022-09-21T12:43:05;15.80;91.00
25058;DHT22;13057;50.978;11.034;2022-09-21T12:45:40;15.90;91.00
25058;DHT22;13057;50.978;11.034;2022-09-21T12:48:30;15.90;90.00
25058;DHT22;13057;50.978;11.034;2022-09-21T12:51:11;15.90;90.60
25058;DHT22;13057;50.978;11.034;2022-09-21T12:53:43;15.90;89.20
25058;DHT22;13057;50.978;11.034;2022-09-21T13:01:53;16.10;87.00
25058;DHT22;13057;50.978;11.034;2022-09-21T13:04:35;16.10;84.50
25058;DHT22;13057;50.978;11.034;2022-09-21T13:09:50;16.10;86.20
25058;DHT22;13057;50.978;11.034;2022-09-21T13:12:20;16.10;87.30
25058;DHT22;13057;50.978;11.034;2022-09-21T13:14:50;16.20;87.50
25058;DHT22;13057;50.978;11.034;2022-09-21T13:17:20;16.20;87.60
25058;DHT22;13057;50.978;11.034;2022-09-21T13:20:03;16.20;88.00
25058;DHT22;13057;50.978;11.034;2022-09-21T13:22:33;16.30;86.90
25058;DHT22;13057;50.978;11.034;2022-09-21T13:25:24;16.20;86.70
25058;DHT22;13057;50.978;11.034;2022-09-21T13:28:00;16.20;86.20
25058;DHT22;13057;50.978;11.034;2022-09-21T13:30:35;16.20;87.00
25058;DHT22;13057;50.978;11.034;2022-09-21T13:33:07;16.30;86.30
25058;DHT22;13057;50.978;11.034;2022-09-21T13:36:01;16.20;85.10
25058;DHT22;13057;50.978;11.034;2022-09-21T13:41:01;16.30;84.50
25058;DHT22;13057;50.978;11.034;2022-09-21T13:43:48;16.30;84.50
25058;DHT22;13057;50.978;11.034;2022-09-21T13:46:46;16.30;84.30
25058;DHT22;13057;50.978;11.034;2022-09-21T13:49:17;16.30;81.70
25058;DHT22;13057;50.978;11.034;2022-09-21T13:51:54;16.30;82.20
25058;DHT22;13057;50.978;11.034;2022-09-21T13:54:27;16.20;82.30
25058;DHT22;13057;50.978;11.034;2022-09-21T13:56:59;16.30;83.30
25058;DHT22;13057;50.978;11.034;2022-09-21T13:59:28;16.30;82.20
25058;DHT22;13057;50.978;11.034;2022-09-21T14:01:55;16.30;81.30
25058;DHT22;13057;50.978;11.034;2022-09-21T14:04:26;16.20;81.20
25058;DHT22;13057;50.978;11.034;2022-09-21T14:06:54;16.20;81.20
25058;DHT22;13057;50.978;11.034;2022-09-21T14:09:30;16.20;80.20
25058;DHT22;13057;50.978;11.034;2022-09-21T14:12:01;16.20;82.40
25058;DHT22;13057;50.978;11.034;2022-09-21T14:14:31;16.20;80.10
25058;DHT22;13057;50.978;11.034;2022-09-21T14:16:59;16.30;79.50
25058;DHT22;13057;50.978;11.034;2022-09-21T14:22:31;16.30;78.40
25058;DHT22;13057;50.978;11.034;2022-09-21T14:25:21;16.30;78.80
25058;DHT22;13057;50.978;11.034;2022-09-21T14:27:50;16.40;78.50
25058;DHT22;13057;50.978;11.034;2022-09-21T14:30:23;16.40;77.40
25058;DHT22;13057;50.978;11.034;2022-09-21T14:33:11;16.40;72.70
25058;DHT22;13057;50.978;11.034;2022-09-21T14:35:42;16.40;72.60
25058;DHT22;13057;50.978;11.034;2022-09-21T14:38:40;16.50;73.70
25058;DHT22;13057;50.978;11.034;2022-09-21T14:41:07;16.60;73.90
25058;DHT22;13057;50.978;11.034;2022-09-21T14:43:35;16.60;73.60
25058;DHT22;13057;50.978;11.034;2022-09-21T14:46:15;16.60;72.10
25058;DHT22;13057;50.978;11.034;2022-09-21T14:48:58;16.60;70.50
25058;DHT22;13057;50.978;11.034;2022-09-21T14:51:56;16.60;72.60
25058;DHT22;13057;50.978;11.034;2022-09-21T14:54:44;16.70;72.80
25058;DHT22;13057;50.978;11.034;2022-09-21T15:00:18;16.70;70.40
25058;DHT22;13057;50.978;11.034;2022-09-21T15:03:13;16.60;68.20
25058;DHT22;13057;50.978;11.034;2022-09-21T15:05:52;16.60;69.90
25058;DHT22;13057;50.978;11.034;2022-09-21T15:08:39;16.60;71.20
25058;DHT22;13057;50.978;11.034;2022-09-21T15:11:26;16.60;70.10
25058;DHT22;13057;50.978;11.034;2022-09-21T15:14:18;16.60;70.70
25058;DHT22;13057;50.978;11.034;2022-09-21T15:16:48;16.70;73.70
25058;DHT22;13057;50.978;11.034;2022-09-21T15:19:21;16.80;72.10
25058;DHT22;13057;50.978;11.034;2022-09-21T15:21:51;16.80;72.50
25058;DHT22;13057;50.978;11.034;2022-09-21T15:26:48;16.80;73.40
25058;DHT22;13057;50.978;11.034;2022-09-21T15:29:23;16.80;73.50
25058;DHT22;13057;50.978;11.034;2022-09-21T15:31:49;16.70;74.80
25058;DHT22;13057;50.978;11.034;2022-09-21T15:34:16;16.70;74.70
25058;DHT22;13057;50.978;11.034;2022-09-21T15:36:42;16.80;76.90
25058;DHT22;13057;50.978;11.034;2022-09-21T15:39:22;17.00;76.80
25058;DHT22;13057;50.978;11.034;2022-09-21T15:41:49;17.10;76.10
25058;DHT22;13057;50.978;11.034;2022-09-21T15:44:24;17.20;76.00
25058;DHT22;13057;50.978;11.034;2022-09-21T15:46:57;17.20;75.20
25058;DHT22;13057;50.978;11.034;2022-09-21T15:49:26;17.10;74.20
25058;DHT22;13057;50.978;11.034;2022-09-21T15:51:59;17.00;74.00
25058;DHT22;13057;50.978;11.034;2022-09-21T15:54:34;16.90;74.60
25058;DHT22;13057;50.978;11.034;2022-09-21T15:57:20;16.80;74.70
25058;DHT22;13057;50.978;11.034;2022-09-21T15:59:48;16.80;75.00
25058;DHT22;13057;50.978;11.034;2022-09-21T16:02:20;16.70;75.00
25058;DHT22;13057;50.978;11.034;2022-09-21T16:04:47;16.70;76.30
25058;DHT22;13057;50.978;11.034;2022-09-21T16:07:30;16.70;75.40
25058;DHT22;13057;50.978;11.034;2022-09-21T16:09:57;16.50;75.00
25058;DHT22;13057;50.978;11.034;2022-09-21T16:12:43;16.40;77.20
25058;DHT22;13057;50.978;11.034;2022-09-21T16:15:23;16.30;76.40
25058;DHT22;13057;50.978;11.034;2022-09-21T16:17:57;16.20;76.10
25058;DHT22;13057;50.978;11.034;2022-09-21T16:20:42;16.10;76.30
25058;DHT22;13057;50.978;11.034;2022-09-21T16:23:13;16.00;76.40
25058;DHT22;13057;50.978;11.034;2022-09-21T16:25:40;16.00;77.30
25058;DHT22;13057;50.978;11.034;2022-09-21T16:28:33;16.00;77.90
25058;DHT22;13057;50.978;11.034;2022-09-21T16:30:59;15.90;78.00
25058;DHT22;13057;50.978;11.034;2022-09-21T16:33:36;15.90;78.70
25058;DHT22;13057;50.978;11.034;2022-09-21T16:36:04;15.90;79.00
25058;DHT22;13057;50.978;11.034;2022-09-21T16:38:30;15.90;78.90
25058;DHT22;13057;50.978;11.034;2022-09-21T16:41:00;15.80;79.50
25058;DHT22;13057;50.978;11.034;2022-09-21T16:43:26;15.80;80.40
25058;DHT22;13057;50.978;11.034;2022-09-21T16:45:51;15.70;81.10